Time;durP1;ratioP1;P1;durP2;ratioP2;P2;SDS_P1;SDS_P2;PMS_P1;PMS_P2;Temp;Humidity;BMP_temperature;BMP_pressure;BME280_temperature;BME280_humidity;BME280_pressure;Samples;Min_cycle;Max_cycle;Signal;HPM_P1;HPM_P2
2023/06/08 00:00:13;;;;;;;11.03;10.33;;;;;;;13.96;100.00;96905.88;4993614;28;20687;-63
2023/06/08 00:02:42;;;;;;;11.77;10.97;;;;;;;13.88;100.00;96900.78;5025085;28;20309;-63
2023/06/08 00:05:13;;;;;;;10.03;9.33;;;;;;;13.91;100.00;96908.34;5044815;28;20301;-63
2023/06/08 00:07:42;;;;;;;10.60;9.97;;;;;;;13.88;100.00;96908.78;5052136;28;20662;-64
2023/06/08 00:10:10;;;;;;;10.00;9.23;;;;;;;13.88;100.00;96908.78;5025108;28;20261;-63
2023/06/08 00:12:38;;;;;;;10.60;9.80;;;;;;;13.82;100.00;96910.44;5038085;28;20234;-63
2023/06/08 00:15:07;;;;;;;10.40;9.70;;;;;;;13.79;100.00;96900.22;5000365;28;20219;-64
2023/06/08 00:17:34;;;;;;;11.10;10.40;;;;;;;13.86;100.00;96897.53;5050184;28;20208;-63
2023/06/08 00:20:08;;;;;;;10.87;10.17;;;;;;;13.88;100.00;96898.13;5028043;28;20223;-65
2023/06/08 00:22:36;;;;;;;11.47;10.67;;;;;;;13.73;100.00;96898.38;5052540;28;20211;-63
2023/06/08 00:25:07;;;;;;;11.47;10.63;;;;;;;13.72;100.00;96902.09;5022629;28;20230;-65
2023/06/08 00:27:35;;;;;;;11.10;10.33;;;;;;;13.64;100.00;96900.50;5049495;28;20334;-61
2023/06/08 00:30:03;;;;;;;11.50;10.63;;;;;;;13.63;100.00;96895.38;5051154;28;20198;-65
2023/06/08 00:32:31;;;;;;;11.17;10.27;;;;;;;13.61;100.00;96898.22;5006234;28;20250;-66
2023/06/08 00:34:59;;;;;;;11.37;10.63;;;;;;;13.57;100.00;96900.50;5035703;28;20245;-65
2023/06/08 00:37:26;;;;;;;11.90;11.00;;;;;;;13.55;100.00;96902.56;5052891;28;20245;-64
2023/06/08 00:39:54;;;;;;;12.30;11.50;;;;;;;13.60;100.00;96894.75;5038630;28;20298;-64
2023/06/08 00:42:23;;;;;;;11.90;11.07;;;;;;;13.59;100.00;96901.13;5038568;28;20214;-61
2023/06/08 00:44:51;;;;;;;10.93;10.23;;;;;;;13.66;100.00;96894.94;5052609;28;20825;-65
2023/06/08 00:47:18;;;;;;;11.07;10.13;;;;;;;13.62;100.00;96899.06;4999225;28;21571;-63
2023/06/08 00:49:46;;;;;;;12.40;11.50;;;;;;;13.59;100.00;96894.97;5032086;28;20207;-64
2023/06/08 00:52:14;;;;;;;11.30;10.53;;;;;;;13.56;100.00;96892.72;5048245;28;20887;-62
2023/06/08 00:54:43;;;;;;;11.33;10.60;;;;;;;13.53;100.00;96893.97;5055298;28;20709;-63
2023/06/08 00:57:12;;;;;;;10.77;10.07;;;;;;;13.50;100.00;96894.41;5028708;28;20282;-63
2023/06/08 00:59:41;;;;;;;11.73;10.83;;;;;;;13.36;100.00;96882.09;5050217;28;20207;-63
2023/06/08 01:02:08;;;;;;;12.43;11.53;;;;;;;13.44;100.00;96888.06;5049530;28;20229;-65
2023/06/08 01:04:39;;;;;;;13.20;12.20;;;;;;;13.48;100.00;96891.13;4983205;28;20238;-63
2023/06/08 01:07:14;;;;;;;11.83;10.87;;;;;;;13.48;100.00;96891.13;5049131;28;20343;-63
2023/06/08 01:09:45;;;;;;;12.60;11.70;;;;;;;13.43;100.00;96885.59;5017707;28;20632;-64
2023/06/08 01:12:19;;;;;;;12.83;11.93;;;;;;;13.38;100.00;96888.03;5035249;28;20199;-64
2023/06/08 01:14:52;;;;;;;13.07;12.07;;;;;;;13.36;100.00;96890.09;5051121;28;20235;-63
2023/06/08 01:17:23;;;;;;;13.40;12.50;;;;;;;13.32;100.00;96885.19;5053406;28;20281;-65
2023/06/08 01:20:07;;;;;;;11.67;10.77;;;;;;;13.27;100.00;96886.84;4984926;28;20219;-63
2023/06/08 01:22:46;;;;;;;12.43;11.63;;;;;;;13.21;100.00;96887.66;5048702;28;20213;-62
2023/06/08 01:25:15;;;;;;;12.83;12.03;;;;;;;13.21;100.00;96888.50;5045793;28;20230;-64
2023/06/08 01:27:44;;;;;;;12.73;11.90;;;;;;;13.21;100.00;96893.81;5029985;28;20601;-64
2023/06/08 01:30:12;;;;;;;13.00;12.20;;;;;;;13.24;100.00;96888.09;5052861;28;20212;-63
2023/06/08 01:32:39;;;;;;;12.90;12.03;;;;;;;13.23;100.00;96889.09;5052634;28;20290;-62
2023/06/08 01:35:07;;;;;;;14.03;13.03;;;;;;;13.26;100.00;96888.69;4982114;28;20245;-64
2023/06/08 01:37:39;;;;;;;13.43;12.13;;;;;;;13.30;100.00;96884.59;5043687;28;20227;-64
2023/06/08 01:40:12;;;;;;;13.60;12.67;;;;;;;13.34;100.00;96884.16;5054375;28;20280;-66
2023/06/08 01:42:43;;;;;;;13.47;12.37;;;;;;;13.32;100.00;96882.53;5028053;28;23417;-63
2023/06/08 01:45:14;;;;;;;12.97;12.00;;;;;;;13.40;100.00;96889.47;5023617;28;20229;-64
2023/06/08 01:47:46;;;;;;;13.63;12.53;;;;;;;13.44;100.00;96882.72;5054287;28;20900;-63
2023/06/08 01:50:15;;;;;;;12.43;11.43;;;;;;;13.50;100.00;96882.91;4981651;28;20420;-63
2023/06/08 01:52:43;;;;;;;13.03;12.03;;;;;;;13.62;100.00;96880.44;5053486;28;20206;-63
2023/06/08 01:55:15;;;;;;;12.53;11.73;;;;;;;13.64;100.00;96870.38;5049272;28;20280;-65
2023/06/08 01:57:44;;;;;;;14.03;13.03;;;;;;;13.69;100.00;96878.53;5044391;28;20213;-61
2023/06/08 02:00:13;;;;;;;13.27;12.43;;;;;;;13.77;100.00;96870.31;5028036;28;20293;-63
2023/06/08 02:02:41;;;;;;;13.47;12.57;;;;;;;13.76;100.00;96868.69;5045696;28;20430;-63
2023/06/08 02:05:10;;;;;;;12.83;11.93;;;;;;;13.72;100.00;96851.50;5008533;28;20226;-63
2023/06/08 02:07:38;;;;;;;13.87;12.83;;;;;;;13.81;100.00;96858.19;5027347;28;20202;-63
2023/06/08 02:10:07;;;;;;;13.33;12.23;;;;;;;13.83;100.00;96860.66;5052929;28;20297;-66
2023/06/08 02:12:35;;;;;;;12.27;11.47;;;;;;;13.76;100.00;96863.34;5052285;28;20203;-63
2023/06/08 02:15:05;;;;;;;13.80;12.90;;;;;;;13.81;100.00;96850.22;5026358;28;20230;-65
2023/06/08 02:17:35;;;;;;;13.70;12.60;;;;;;;13.80;100.00;96858.44;5051777;28;20203;-63
2023/06/08 02:20:06;;;;;;;12.40;11.60;;;;;;;13.75;100.00;96857.22;5028227;28;20207;-64
2023/06/08 02:22:36;;;;;;;12.23;11.33;;;;;;;13.72;100.00;96854.16;5019403;28;20851;-61
2023/06/08 02:25:04;;;;;;;13.30;12.40;;;;;;;13.73;100.00;96863.78;5049946;28;20503;-61
2023/06/08 02:27:35;;;;;;;12.93;12.13;;;;;;;13.69;100.00;96865.22;5050286;28;20205;-60
2023/06/08 02:30:08;;;;;;;13.70;12.67;;;;;;;13.58;100.00;96862.22;5025384;28;20214;-65
2023/06/08 02:32:36;;;;;;;13.57;12.60;;;;;;;13.52;100.00;96862.22;5054185;28;20195;-65
2023/06/08 02:35:05;;;;;;;12.97;11.97;;;;;;;13.56;100.00;96858.13;5053373;28;20257;-65
2023/06/08 02:37:34;;;;;;;13.37;12.27;;;;;;;13.51;100.00;96866.75;5000774;28;20325;-62
2023/06/08 02:40:02;;;;;;;13.07;12.17;;;;;;;13.45;100.00;96875.59;5028158;28;20662;-65
2023/06/08 02:42:30;;;;;;;14.20;13.30;;;;;;;13.44;100.00;96876.56;5048106;28;20581;-61
2023/06/08 02:44:58;;;;;;;14.90;13.90;;;;;;;13.31;100.00;96875.56;5045081;28;20265;-65
2023/06/08 02:47:27;;;;;;;13.07;12.17;;;;;;;13.28;100.00;96865.34;5039628;28;20475;-62
2023/06/08 02:49:55;;;;;;;13.00;12.10;;;;;;;13.20;100.00;96870.06;5044119;28;20394;-64
2023/06/08 02:52:22;;;;;;;14.27;13.17;;;;;;;13.16;100.00;96867.03;4996162;28;21046;-62
2023/06/08 02:54:50;;;;;;;14.57;13.47;;;;;;;13.10;100.00;96867.88;5032116;28;20261;-62
2023/06/08 02:57:17;;;;;;;13.77;12.77;;;;;;;13.17;100.00;96868.66;5046890;28;20545;-63
2023/06/08 02:59:45;;;;;;;13.70;12.80;;;;;;;13.14;100.00;96863.75;5048542;28;20199;-63
2023/06/08 03:02:13;;;;;;;13.80;12.80;;;;;;;13.07;100.00;96866.44;5025458;28;20853;-60
2023/06/08 03:04:43;;;;;;;13.83;12.93;;;;;;;13.03;100.00;96870.53;5053557;28;20298;-63
2023/06/08 03:07:15;;;;;;;14.27;13.27;;;;;;;12.95;100.00;96874.22;5048238;28;20202;-65
2023/06/08 03:09:43;;;;;;;14.27;13.30;;;;;;;12.95;100.00;96873.41;4995215;28;20203;-64
2023/06/08 03:12:12;;;;;;;14.97;13.87;;;;;;;12.98;100.00;96870.34;5038786;28;20203;-66
2023/06/08 03:14:40;;;;;;;15.43;14.33;;;;;;;12.90;100.00;96875.88;5034141;28;20230;-64
2023/06/08 03:17:08;;;;;;;15.40;14.30;;;;;;;12.85;100.00;96876.47;5028704;28;20203;-65
2023/06/08 03:19:36;;;;;;;16.17;15.07;;;;;;;12.85;100.00;96869.31;5051256;28;20427;-63
2023/06/08 03:22:06;;;;;;;14.83;13.83;;;;;;;12.82;100.00;96877.69;5050937;28;20749;-64
2023/06/08 03:24:34;;;;;;;16.00;14.90;;;;;;;12.80;100.00;96874.44;4999622;28;20231;-63
2023/06/08 03:27:03;;;;;;;16.67;15.57;;;;;;;12.90;100.00;96876.69;5027844;28;20292;-65
2023/06/08 03:29:31;;;;;;;16.87;15.57;;;;;;;12.91;100.00;96875.66;5046667;28;20693;-64
2023/06/08 03:31:59;;;;;;;16.13;15.03;;;;;;;12.85;100.00;96868.50;5031921;28;20213;-63
2023/06/08 03:34:27;;;;;;;17.60;16.20;;;;;;;12.84;100.00;96875.66;5041371;28;20523;-65
2023/06/08 03:36:55;;;;;;;16.73;15.37;;;;;;;12.82;100.00;96877.69;5045313;28;20213;-64
2023/06/08 03:39:24;;;;;;;16.13;14.97;;;;;;;12.83;100.00;96875.88;4997822;28;21077;-63
2023/06/08 03:41:52;;;;;;;16.30;15.07;;;;;;;12.85;100.00;96874.63;5051318;28;20225;-63
2023/06/08 03:44:20;;;;;;;16.07;14.87;;;;;;;12.81;100.00;96875.25;5034181;28;20318;-65
2023/06/08 03:46:47;;;;;;;15.87;14.87;;;;;;;12.77;100.00;96882.00;5039314;28;20306;-62
2023/06/08 03:49:15;;;;;;;16.60;15.40;;;;;;;12.82;100.00;96879.56;5028377;28;20206;-62
2023/06/08 03:51:42;;;;;;;16.73;15.63;;;;;;;12.93;100.00;96876.25;5052739;28;20233;-63
2023/06/08 03:54:10;;;;;;;16.33;15.00;;;;;;;12.95;100.00;96874.22;5043686;28;20349;-65
2023/06/08 03:56:39;;;;;;;17.33;15.93;;;;;;;12.98;100.00;96875.66;4989091;28;20719;-59
2023/06/08 03:59:07;;;;;;;17.47;16.03;;;;;;;13.02;100.00;96874.22;5029120;28;20214;-62
2023/06/08 04:01:35;;;;;;;17.70;16.50;;;;;;;13.07;100.00;96882.38;5031307;28;20484;-63
2023/06/08 04:04:03;;;;;;;16.47;15.30;;;;;;;13.15;100.00;96866.19;5032697;28;20689;-64
2023/06/08 04:06:33;;;;;;;17.43;16.23;;;;;;;13.20;100.00;96872.72;5049544;28;20241;-66
2023/06/08 04:09:01;;;;;;;17.00;15.80;;;;;;;13.26;100.00;96869.25;5040600;28;20262;-66
2023/06/08 04:11:29;;;;;;;16.20;15.00;;;;;;;13.31;100.00;96875.56;5001528;28;20697;-67
2023/06/08 04:13:58;;;;;;;17.93;16.57;;;;;;;13.32;100.00;96868.41;5024925;28;20325;-66
2023/06/08 04:16:25;;;;;;;16.43;15.30;;;;;;;13.36;100.00;96869.63;5005835;28;20807;-63
2023/06/08 04:18:53;;;;;;;17.27;15.90;;;;;;;13.46;100.00;96872.69;5030028;28;20214;-64
2023/06/08 04:21:25;;;;;;;17.37;16.07;;;;;;;13.56;100.00;96882.06;5049522;28;20261;-66
2023/06/08 04:23:52;;;;;;;17.00;15.80;;;;;;;13.66;100.00;96876.31;5049308;28;20231;-66
2023/06/08 04:26:20;;;;;;;16.40;15.10;;;;;;;13.72;100.00;96875.47;4999640;28;20403;-67
2023/06/08 04:28:49;;;;;;;16.97;15.77;;;;;;;13.80;100.00;96880.53;5045220;28;20226;-64
2023/06/08 04:31:18;;;;;;;17.60;16.37;;;;;;;13.96;100.00;96873.09;5046449;28;20283;-65
2023/06/08 04:33:45;;;;;;;17.07;15.90;;;;;;;14.04;100.00;96875.50;5045081;28;20259;-65
2023/06/08 04:36:13;;;;;;;16.60;15.50;;;;;;;14.08;100.00;96871.38;5029044;28;20226;-67
2023/06/08 04:38:42;;;;;;;15.40;14.37;;;;;;;14.25;100.00;96876.22;5046125;28;20742;-66
2023/06/08 04:41:11;;;;;;;14.93;14.00;;;;;;;14.31;100.00;96872.69;5037109;28;20235;-62
2023/06/08 04:43:39;;;;;;;14.33;13.33;;;;;;;14.48;100.00;96873.78;5019596;28;20832;-65
2023/06/08 04:46:07;;;;;;;15.93;14.83;;;;;;;14.71;100.00;96877.75;5049552;28;20214;-64
2023/06/08 04:48:37;;;;;;;15.03;14.03;;;;;;;14.86;100.00;96864.09;5021692;28;20428;-64
2023/06/08 04:51:09;;;;;;;14.20;13.30;;;;;;;14.90;100.00;96867.94;5028088;28;20211;-64
2023/06/08 04:53:37;;;;;;;14.00;13.00;;;;;;;15.11;100.00;96863.22;5046522;28;20203;-64
2023/06/08 04:56:06;;;;;;;12.87;11.97;;;;;;;15.23;100.00;96860.63;5049341;28;20226;-65
2023/06/08 04:58:34;;;;;;;15.03;13.80;;;;;;;15.36;100.00;96861.53;5006353;28;20284;-64
2023/06/08 05:01:02;;;;;;;13.67;12.67;;;;;;;15.57;100.00;96866.41;5047069;28;20968;-63
2023/06/08 05:03:29;;;;;;;13.57;12.47;;;;;;;15.68;100.00;96858.69;5033990;28;20653;-64
2023/06/08 05:05:58;;;;;;;12.43;11.43;;;;;;;15.90;100.00;96859.03;5030379;28;20211;-63
2023/06/08 05:08:26;;;;;;;12.53;11.73;;;;;;;16.06;100.00;96861.09;5046036;28;20290;-64
2023/06/08 05:10:53;;;;;;;12.47;11.60;;;;;;;16.16;100.00;96862.41;5050501;28;20230;-64
2023/06/08 05:13:21;;;;;;;12.63;11.83;;;;;;;16.38;100.00;96857.34;5001149;28;20288;-66
2023/06/08 05:15:50;;;;;;;12.63;11.73;;;;;;;16.47;100.00;96857.84;5049702;28;20674;-64
2023/06/08 05:18:17;;;;;;;11.83;11.03;;;;;;;16.51;100.00;96863.53;5031510;28;20207;-66
2023/06/08 05:20:45;;;;;;;11.87;10.97;;;;;;;16.68;100.00;96867.16;5028923;28;20340;-65
2023/06/08 05:23:14;;;;;;;11.83;10.93;;;;;;;16.73;100.00;96866.47;5049755;28;20730;-65
2023/06/08 05:25:42;;;;;;;11.07;10.43;;;;;;;16.86;100.00;96863.56;5047072;28;20317;-63
2023/06/08 05:28:09;;;;;;;12.07;11.17;;;;;;;17.03;100.00;96855.69;5004180;28;20222;-66
2023/06/08 05:30:37;;;;;;;12.17;11.13;;;;;;;17.14;100.00;96847.88;5050996;28;20195;-66
2023/06/08 05:33:05;;;;;;;12.03;11.13;;;;;;;17.05;100.00;96853.59;5029626;28;20525;-65
2023/06/08 05:35:33;;;;;;;10.80;10.00;;;;;;;17.26;100.00;96845.19;5052241;28;20306;-66
2023/06/08 05:38:00;;;;;;;11.07;10.27;;;;;;;17.30;100.00;96860.56;5032998;28;20920;-63
2023/06/08 05:40:29;;;;;;;12.07;10.73;;;;;;;17.50;100.00;96857.50;5044253;28;20198;-66
2023/06/08 05:42:57;;;;;;;11.60;10.80;;;;;;;17.63;100.00;96858.28;5049798;28;20280;-64
2023/06/08 05:45:25;;;;;;;10.83;10.20;;;;;;;17.78;100.00;96858.56;4996663;28;20227;-61
2023/06/08 05:47:53;;;;;;;10.73;9.93;;;;;;;17.85;100.00;96863.78;5046412;28;20233;-63
2023/06/08 05:50:21;;;;;;;10.60;9.73;;;;;;;17.58;100.00;96856.28;5029521;28;20203;-66
2023/06/08 05:52:48;;;;;;;10.03;9.43;;;;;;;17.96;100.00;96866.66;5030982;28;20782;-64
2023/06/08 05:55:16;;;;;;;9.50;8.90;;;;;;;17.98;100.00;96848.47;5047901;28;20230;-66
2023/06/08 05:57:45;;;;;;;9.90;9.10;;;;;;;17.98;100.00;96861.88;5051099;28;20277;-61
2023/06/08 06:00:14;;;;;;;9.53;8.90;;;;;;;18.15;100.00;96859.25;4999621;28;20208;-65
2023/06/08 06:02:42;;;;;;;9.53;8.83;;;;;;;18.39;100.00;96859.97;5050482;28;20420;-64
2023/06/08 06:05:10;;;;;;;9.27;8.63;;;;;;;18.48;100.00;96852.31;5025874;28;20235;-65
2023/06/08 06:07:38;;;;;;;9.17;8.23;;;;;;;18.52;100.00;96848.91;5027908;28;20385;-63
2023/06/08 06:10:07;;;;;;;8.77;8.20;;;;;;;18.64;100.00;96850.69;5052564;28;20326;-65
2023/06/08 06:12:35;;;;;;;9.23;8.63;;;;;;;18.67;100.00;96850.22;5046525;28;21213;-64
2023/06/08 06:15:05;;;;;;;8.97;8.37;;;;;;;18.69;100.00;96853.47;4974265;28;20799;-65
2023/06/08 06:17:33;;;;;;;9.20;8.60;;;;;;;18.81;100.00;96858.75;5049897;28;20235;-64
2023/06/08 06:20:00;;;;;;;9.70;9.00;;;;;;;18.94;100.00;96850.38;5030204;28;20289;-66
2023/06/08 06:22:28;;;;;;;8.33;7.83;;;;;;;19.05;100.00;96848.66;5052792;28;20207;-63
2023/06/08 06:24:56;;;;;;;8.80;8.20;;;;;;;19.08;100.00;96845.47;5023954;28;20378;-64
2023/06/08 06:27:23;;;;;;;9.33;8.53;;;;;;;19.18;100.00;96844.00;5047908;28;20555;-63
2023/06/08 06:29:51;;;;;;;8.73;8.17;;;;;;;19.31;100.00;96840.13;5012543;28;20286;-64
2023/06/08 06:32:20;;;;;;;8.97;8.27;;;;;;;19.56;100.00;96841.53;5038654;28;20749;-63
2023/06/08 06:34:48;;;;;;;9.13;8.43;;;;;;;19.51;100.00;96850.34;5029374;28;20233;-65
2023/06/08 06:37:16;;;;;;;8.37;7.70;;;;;;;19.41;100.00;96842.13;5052952;28;20260;-64
2023/06/08 06:39:43;;;;;;;8.57;7.93;;;;;;;19.51;100.00;96848.47;5027502;28;20294;-65
2023/06/08 06:42:11;;;;;;;8.47;7.87;;;;;;;19.60;100.00;96846.16;5046735;28;20288;-65
2023/06/08 06:44:39;;;;;;;9.07;8.37;;;;;;;19.57;100.00;96837.78;5042921;28;20223;-64
2023/06/08 06:47:07;;;;;;;8.30;7.70;;;;;;;19.59;100.00;96843.72;5009641;28;20199;-63
2023/06/08 06:49:36;;;;;;;8.87;8.17;;;;;;;19.63;100.00;96845.66;5032163;28;20203;-64
2023/06/08 06:52:05;;;;;;;8.47;7.77;;;;;;;19.68;100.00;96847.56;5045650;28;20298;-64
2023/06/08 06:54:33;;;;;;;7.73;7.13;;;;;;;19.86;100.00;96853.69;5049565;28;20291;-63
2023/06/08 06:57:00;;;;;;;7.93;7.43;;;;;;;20.07;100.00;96852.88;5029059;28;20210;-66
2023/06/08 06:59:29;;;;;;;8.50;7.80;;;;;;;20.16;100.00;96857.81;5045629;28;20230;-64
2023/06/08 07:01:56;;;;;;;8.13;7.63;;;;;;;20.29;100.00;96859.28;4996761;28;20803;-62
2023/06/08 07:04:25;;;;;;;8.33;7.77;;;;;;;20.36;100.00;96863.38;5053917;28;20233;-63
2023/06/08 07:06:56;;;;;;;8.60;8.07;;;;;;;20.24;100.00;96866.22;5025665;28;20305;-66
2023/06/08 07:09:24;;;;;;;8.50;8.00;;;;;;;20.21;100.00;96865.91;5047941;28;20606;-64
2023/06/08 07:11:52;;;;;;;9.47;8.77;;;;;;;20.23;100.00;96869.97;5029362;28;20581;-66
2023/06/08 07:14:40;;;;;;;9.40;8.73;;;;;;;20.17;100.00;96859.44;5048204;28;20215;-66
2023/06/08 07:17:07;;;;;;;9.10;8.23;;;;;;;20.36;100.00;96852.59;4994406;28;20207;-61
2023/06/08 07:19:35;;;;;;;9.07;8.47;;;;;;;20.50;100.00;96862.97;5050916;28;20237;-63
2023/06/08 07:22:05;;;;;;;9.57;8.73;;;;;;;20.54;100.00;96864.88;5025845;28;20418;-64
2023/06/08 07:24:53;;;;;;;9.07;8.50;;;;;;;20.65;100.00;96863.06;5034202;28;20226;-64
2023/06/08 07:27:41;;;;;;;8.87;8.27;;;;;;;20.80;100.00;96864.28;5046770;28;20203;-66
2023/06/08 07:30:09;;;;;;;9.20;8.60;;;;;;;20.81;100.00;96857.84;5045645;28;20199;-64
2023/06/08 07:32:37;;;;;;;8.63;8.03;;;;;;;20.61;100.00;96858.47;4998959;28;20298;-65
2023/06/08 07:35:06;;;;;;;8.90;8.40;;;;;;;20.81;100.00;96855.13;5027571;28;20231;-64
2023/06/08 07:37:36;;;;;;;8.30;7.67;;;;;;;20.96;100.00;96854.44;5050615;28;20248;-64
2023/06/08 07:40:06;;;;;;;8.57;8.07;;;;;;;21.14;100.00;96839.72;5047680;28;20491;-64
2023/06/08 07:42:34;;;;;;;8.17;7.67;;;;;;;21.18;100.00;96846.22;5028406;28;20212;-64
2023/06/08 07:45:02;;;;;;;8.20;7.50;;;;;;;21.45;100.00;96844.50;5045659;28;20246;-64
2023/06/08 07:47:30;;;;;;;7.90;7.30;;;;;;;21.62;100.00;96847.78;5002110;28;20301;-66
2023/06/08 07:49:58;;;;;;;7.67;7.27;;;;;;;21.71;100.00;96837.34;5050387;28;20475;-64
2023/06/08 07:52:25;;;;;;;7.67;6.90;;;;;;;21.74;100.00;96849.47;5024032;28;20207;-64
2023/06/08 07:54:54;;;;;;;8.27;7.77;;;;;;;21.67;100.00;96831.66;5047890;28;20803;-66
2023/06/08 07:57:22;;;;;;;7.43;6.93;;;;;;;21.70;100.00;96841.13;5028138;28;20299;-64
2023/06/08 07:59:49;;;;;;;7.53;7.00;;;;;;;21.45;100.00;96842.59;5045620;28;20199;-65
2023/06/08 08:02:17;;;;;;;6.77;6.20;;;;;;;21.47;100.00;96840.44;5049286;28;20686;-64
2023/06/08 08:04:44;;;;;;;7.23;6.73;;;;;;;21.50;100.00;96839.91;5005327;28;20238;-66
2023/06/08 08:07:12;;;;;;;7.60;7.10;;;;;;;21.71;100.00;96833.81;5029696;28;20788;-64
2023/06/08 08:09:41;;;;;;;6.93;6.53;;;;;;;21.88;100.00;96833.59;5049695;28;20306;-65
2023/06/08 08:12:10;;;;;;;6.40;6.00;;;;;;;21.93;100.00;96833.59;5026703;28;20202;-64
2023/06/08 08:14:39;;;;;;;8.17;6.70;;;;;;;22.27;100.00;96833.13;5045934;28;20299;-64
2023/06/08 08:17:07;;;;;;;6.80;6.40;;;;;;;22.47;100.00;96826.97;5042259;28;21178;-64
2023/06/08 08:19:34;;;;;;;6.37;5.93;;;;;;;22.23;100.00;96835.56;5001352;28;20211;-64
2023/06/08 08:22:02;;;;;;;5.90;5.60;;;;;;;22.38;100.00;96823.16;5026900;28;21224;-64
2023/06/08 08:24:30;;;;;;;6.70;6.30;;;;;;;22.38;100.00;96828.56;5051181;28;20258;-65
2023/06/08 08:26:57;;;;;;;6.70;6.20;;;;;;;22.21;100.00;96829.63;5028951;28;21038;-66
2023/06/08 08:29:26;;;;;;;6.63;6.20;;;;;;;22.60;100.00;96835.63;5045894;28;20238;-63
2023/06/08 08:31:55;;;;;;;6.17;5.87;;;;;;;22.96;100.00;96830.97;5047848;28;20202;-65
2023/06/08 08:34:22;;;;;;;5.57;5.27;;;;;;;22.81;89.81;96828.31;5051959;28;20227;-63
2023/06/08 08:36:50;;;;;;;6.63;6.20;;;;;;;23.13;99.09;96827.97;4989593;28;20214;-64
2023/06/08 08:39:17;;;;;;;6.10;5.70;;;;;;;23.50;96.66;96833.28;5045282;28;20201;-63
2023/06/08 08:41:47;;;;;;;5.50;5.07;;;;;;;23.56;90.59;96818.66;5035321;28;20202;-64
2023/06/08 08:44:15;;;;;;;5.93;5.53;;;;;;;23.54;86.59;96826.25;5042288;28;20829;-65
2023/06/08 08:46:46;;;;;;;5.43;4.77;;;;;;;23.96;86.77;96822.25;5049099;28;20680;-65
2023/06/08 08:49:15;;;;;;;6.27;5.77;;;;;;;24.38;87.64;96822.00;5052888;28;20498;-64
2023/06/08 08:51:43;;;;;;;5.90;5.60;;;;;;;24.40;82.46;96826.03;5006022;28;20298;-65
2023/06/08 08:54:12;;;;;;;6.40;5.90;;;;;;;24.15;81.63;96829.75;5027737;28;20353;-64
2023/06/08 08:56:39;;;;;;;6.67;5.57;;;;;;;24.16;81.04;96825.94;5055705;28;20191;-65
2023/06/08 08:59:07;;;;;;;5.47;5.13;;;;;;;24.37;80.82;96820.38;5028339;28;20834;-63
2023/06/08 09:01:35;;;;;;;5.30;4.90;;;;;;;24.50;81.59;96817.03;5054548;28;20311;-65
2023/06/08 09:04:04;;;;;;;5.13;4.83;;;;;;;24.26;71.81;96812.34;5052361;28;20234;-65
2023/06/08 09:06:32;;;;;;;5.27;4.97;;;;;;;24.76;70.81;96816.81;5055094;28;20837;-64
2023/06/08 09:08:59;;;;;;;5.37;4.97;;;;;;;24.76;69.05;96808.69;4978466;28;20215;-63
2023/06/08 09:11:27;;;;;;;5.30;5.00;;;;;;;24.43;72.90;96811.13;5054542;28;20230;-63
2023/06/08 09:14:10;;;;;;;5.10;4.70;;;;;;;24.05;77.67;96811.66;5020261;28;20653;-65
2023/06/08 09:16:42;;;;;;;5.07;4.77;;;;;;;24.02;82.11;96796.00;5047598;28;20730;-65
2023/06/08 09:19:12;;;;;;;4.70;4.40;;;;;;;24.14;74.27;96801.84;5048064;28;20210;-65
2023/06/08 09:21:43;;;;;;;5.10;4.70;;;;;;;24.52;74.00;96801.31;5055021;28;20203;-64
2023/06/08 09:24:12;;;;;;;5.60;5.20;;;;;;;24.76;72.73;96795.16;4978171;28;20629;-64
2023/06/08 09:26:45;;;;;;;5.40;5.10;;;;;;;24.26;73.38;96790.69;5055906;28;20254;-65
2023/06/08 09:29:14;;;;;;;5.10;4.80;;;;;;;24.60;70.81;96785.53;5030035;28;24046;-63
2023/06/08 09:31:50;;;;;;;4.87;4.67;;;;;;;24.68;69.47;96790.34;5047626;28;20199;-65
2023/06/08 09:34:20;;;;;;;4.93;4.53;;;;;;;24.80;72.33;96781.84;5053253;28;20226;-63
2023/06/08 09:36:49;;;;;;;4.50;4.30;;;;;;;24.97;68.61;96771.38;5054476;28;20279;-65
2023/06/08 09:39:17;;;;;;;5.00;4.70;;;;;;;25.29;68.18;96780.75;4976817;28;20203;-64
2023/06/08 09:41:56;;;;;;;5.07;4.77;;;;;;;25.52;65.65;96767.50;5051446;28;20210;-65
2023/06/08 09:44:24;;;;;;;4.60;4.37;;;;;;;25.46;67.19;96763.25;5027024;28;20231;-63
2023/06/08 09:46:51;;;;;;;5.13;4.83;;;;;;;25.48;63.74;96768.38;5052390;28;20793;-63
2023/06/08 09:49:21;;;;;;;4.83;4.47;;;;;;;25.40;65.42;96767.91;5054178;28;20612;-64
2023/06/08 09:51:50;;;;;;;4.50;4.30;;;;;;;25.27;64.69;96771.31;5051751;28;20195;-66
2023/06/08 09:54:23;;;;;;;4.30;4.10;;;;;;;25.55;63.14;96761.50;4999408;28;20227;-64
2023/06/08 09:56:54;;;;;;;5.10;4.70;;;;;;;25.66;62.60;96767.59;5033128;28;20208;-67
2023/06/08 09:59:28;;;;;;;4.57;4.37;;;;;;;25.90;65.13;96755.84;5031283;28;20667;-66
2023/06/08 10:01:57;;;;;;;4.73;4.20;;;;;;;26.13;64.88;96753.34;5049630;28;20643;-66
2023/06/08 10:04:31;;;;;;;4.07;3.80;;;;;;;25.88;61.82;96747.19;5054899;28;20905;-64
2023/06/08 10:07:03;;;;;;;4.33;4.13;;;;;;;25.25;63.08;96749.13;5049289;28;20227;-64
2023/06/08 10:09:35;;;;;;;4.80;4.40;;;;;;;24.85;64.84;96755.53;5048036;28;20232;-66
2023/06/08 10:12:03;;;;;;;4.50;4.20;;;;;;;24.67;67.38;96757.03;4982398;28;20308;-64
2023/06/08 10:14:32;;;;;;;4.27;4.07;;;;;;;24.60;66.69;96755.75;5046623;28;20229;-65
2023/06/08 10:17:00;;;;;;;4.73;4.50;;;;;;;24.95;74.22;96743.75;5027195;28;20650;-64
2023/06/08 10:19:31;;;;;;;4.13;3.93;;;;;;;25.39;69.33;96739.16;5049662;28;20689;-64
2023/06/08 10:21:59;;;;;;;4.93;4.53;;;;;;;25.86;63.98;96741.25;5051553;28;20309;-64
2023/06/08 10:24:29;;;;;;;4.17;3.97;;;;;;;26.21;62.25;96730.97;5048804;28;20243;-65
2023/06/08 10:27:09;;;;;;;4.27;4.03;;;;;;;26.12;59.80;96738.16;4975222;28;20385;-62
2023/06/08 10:29:37;;;;;;;4.40;4.20;;;;;;;25.99;58.63;96742.41;5049167;28;20845;-64
2023/06/08 10:32:06;;;;;;;5.33;4.93;;;;;;;26.09;60.74;96736.03;5033622;28;20894;-65
2023/06/08 10:34:40;;;;;;;4.00;3.80;;;;;;;26.24;57.67;96732.28;5050955;28;20267;-64
2023/06/08 10:37:26;;;;;;;4.13;3.87;;;;;;;25.90;56.56;96731.41;5048632;28;20419;-64
2023/06/08 10:39:55;;;;;;;4.20;4.00;;;;;;;25.63;62.06;96724.78;5004272;28;20203;-64
2023/06/08 10:42:23;;;;;;;5.40;5.10;;;;;;;26.22;62.46;96724.44;5026043;28;20211;-64
2023/06/08 10:44:54;;;;;;;4.03;3.80;;;;;;;26.26;59.98;96714.59;5047192;28;20885;-66
2023/06/08 10:47:22;;;;;;;4.90;4.60;;;;;;;26.29;60.55;96718.63;5028086;28;20231;-65
2023/06/08 10:49:58;;;;;;;5.30;4.23;;;;;;;26.35;62.38;96713.94;5049508;28;20678;-66
2023/06/08 10:52:26;;;;;;;4.80;4.47;;;;;;;26.29;59.29;96718.63;5050235;28;20293;-64
2023/06/08 10:54:56;;;;;;;4.40;4.10;;;;;;;25.56;59.15;96708.03;5043633;28;20232;-67
2023/06/08 10:57:38;;;;;;;4.20;4.00;;;;;;;25.24;64.21;96712.25;4976483;28;20211;-64
2023/06/08 11:00:43;;;;;;;4.50;4.20;;;;;;;25.07;63.56;96712.75;5048947;28;20479;-64
2023/06/08 11:03:16;;;;;;;4.47;4.07;;;;;;;24.79;63.82;96710.59;5027598;28;20473;-62
2023/06/08 11:05:49;;;;;;;4.60;4.30;;;;;;;24.76;65.37;96707.69;5050914;28;20306;-65
2023/06/08 11:08:18;;;;;;;4.97;4.67;;;;;;;24.99;68.51;96698.72;5049557;28;20733;-64
2023/06/08 11:10:52;;;;;;;8.80;8.20;;;;;;;25.12;68.59;96699.91;5047639;28;20207;-66
2023/06/08 11:13:20;;;;;;;6.10;5.73;;;;;;;25.28;67.64;96707.88;4975503;28;20214;-64
2023/06/08 11:15:48;;;;;;;4.83;4.53;;;;;;;25.12;65.85;96708.06;5048738;28;20294;-66
2023/06/08 11:18:19;;;;;;;6.83;6.33;;;;;;;25.69;66.44;96712.75;5031602;28;20277;-67
2023/06/08 11:20:48;;;;;;;6.40;5.90;;;;;;;26.02;62.02;96709.25;5047377;28;20257;-65
2023/06/08 11:23:16;;;;;;;5.20;4.80;;;;;;;25.99;63.84;96705.25;5050740;28;20191;-63
2023/06/08 11:25:45;;;;;;;6.30;6.00;;;;;;;25.68;69.80;96711.13;5044024;28;20219;-65
2023/06/08 11:28:13;;;;;;;6.13;5.67;;;;;;;24.91;79.18;96714.81;4999030;28;20613;-65